Time;durP1;ratioP1;P1;durP2;ratioP2;P2;SDS_P1;SDS_P2;PMS_P1;PMS_P2;Temp;Humidity;BMP_temperature;BMP_pressure;BME280_temperature;BME280_humidity;BME280_pressure;Samples;Min_cycle;Max_cycle;Signal;HPM_P1;HPM_P2
2023/08/24 00:01:50;;;;;;;4.10;3.70;;;15.00;1.00;;;;;;8308931;28;20210;-64
2023/08/24 00:05:51;;;;;;;4.10;3.77;;;15.00;1.00;;;;;;8319247;28;20190;-65
2023/08/24 00:09:53;;;;;;;3.97;3.57;;;14.90;1.00;;;;;;8320826;28;20303;-66
2023/08/24 00:13:54;;;;;;;5.43;4.33;;;14.90;23.00;;;;;;8323874;28;20289;-64
2023/08/24 00:17:54;;;;;;;4.50;4.07;;;14.80;64.50;;;;;;8296221;28;20193;-64
2023/08/24 00:21:55;;;;;;;4.43;4.03;;;14.80;99.90;;;;;;8308774;28;20214;-63
2023/08/24 00:25:56;;;;;;;5.47;4.27;;;14.70;99.90;;;;;;8302159;28;20193;-65
2023/08/24 00:29:56;;;;;;;4.50;4.10;;;14.70;99.90;;;;;;8296893;28;20597;-64
2023/08/24 00:33:57;;;;;;;4.47;4.07;;;14.70;99.90;;;;;;8309985;28;20189;-64
2023/08/24 00:37:58;;;;;;;4.13;3.80;;;14.70;99.90;;;;;;8320794;28;20214;-63
2023/08/24 00:41:59;;;;;;;5.17;4.40;;;14.60;99.90;;;;;;8311204;28;20283;-64
2023/08/24 00:46:01;;;;;;;4.60;4.00;;;14.60;99.90;;;;;;8309775;28;20178;-64
2023/08/24 00:50:03;;;;;;;5.40;4.43;;;14.60;99.90;;;;;;8305753;28;20195;-64
2023/08/24 00:54:04;;;;;;;4.90;4.50;;;14.60;1.00;;;;;;8318957;28;20190;-63
2023/08/24 00:58:06;;;;;;;4.53;3.93;;;14.60;1.00;;;;;;8312360;28;20187;-64
2023/08/24 01:02:07;;;;;;;4.40;3.97;;;14.50;1.00;;;;;;8316727;28;20214;-63
2023/08/24 01:06:07;;;;;;;4.60;4.10;;;14.50;99.90;;;;;;8307714;28;20220;-65
2023/08/24 01:10:11;;;;;;;4.77;3.90;;;14.50;99.90;;;;;;8321623;28;20210;-63
2023/08/24 01:14:15;;;;;;;4.50;4.10;;;14.50;99.90;;;;;;8303885;28;20281;-63
2023/08/24 01:18:20;;;;;;;4.17;3.77;;;14.40;99.90;;;;;;8321164;28;20187;-63
2023/08/24 01:22:44;;;;;;;5.87;4.17;;;14.40;99.90;;;;;;8325620;28;20242;-63
2023/08/24 01:26:48;;;;;;;5.30;4.20;;;14.40;99.90;;;;;;8307376;28;20524;-65
2023/08/24 01:30:49;;;;;;;4.87;4.17;;;14.30;99.90;;;;;;8325091;28;20190;-65
2023/08/24 01:34:50;;;;;;;5.03;4.30;;;14.30;1.00;;;;;;8312372;28;20190;-63
2023/08/24 01:39:20;;;;;;;5.37;4.87;;;14.30;1.00;;;;;;8303647;28;20318;-64
2023/08/24 01:43:24;;;;;;;5.47;4.97;;;14.30;99.90;;;;;;8322151;28;20186;-64
2023/08/24 01:47:27;;;;;;;6.70;4.97;;;14.30;1.00;;;;;;8321902;28;20190;-64
2023/08/24 01:51:28;;;;;;;6.47;5.87;;;14.40;7.40;;;;;;8320112;28;20190;-63
2023/08/24 01:55:29;;;;;;;8.27;6.37;;;14.40;99.90;;;;;;8322431;28;20182;-64
2023/08/24 01:59:29;;;;;;;7.23;6.20;;;14.50;1.00;;;;;;8303371;28;20297;-63
2023/08/24 02:03:30;;;;;;;6.63;6.03;;;14.60;99.90;;;;;;8328288;28;20189;-65
2023/08/24 02:07:31;;;;;;;6.97;5.70;;;14.60;1.00;;;;;;8319741;28;20578;-64
2023/08/24 02:11:32;;;;;;;6.73;6.03;;;14.60;99.90;;;;;;8322681;28;20205;-64
2023/08/24 02:15:32;;;;;;;6.57;5.80;;;14.60;1.00;;;;;;8306942;28;20182;-64
2023/08/24 02:19:33;;;;;;;7.47;6.33;;;14.60;99.90;;;;;;8326409;28;20256;-63
2023/08/24 02:23:34;;;;;;;7.10;5.70;;;14.60;99.00;;;;;;8328613;28;20470;-64
2023/08/24 02:27:34;;;;;;;6.53;5.50;;;14.60;1.00;;;;;;8323636;28;20174;-64
2023/08/24 02:31:35;;;;;;;6.23;5.30;;;14.60;99.90;;;;;;8321099;28;20186;-64
2023/08/24 02:35:36;;;;;;;6.43;5.57;;;14.50;99.90;;;;;;8334659;28;20327;-64
2023/08/24 02:39:37;;;;;;;6.17;5.33;;;14.50;99.90;;;;;;8319789;28;20197;-64
2023/08/24 02:43:37;;;;;;;5.80;5.30;;;14.50;99.90;;;;;;8305176;28;20203;-63
2023/08/24 02:47:38;;;;;;;5.43;4.93;;;14.40;1.00;;;;;;8305122;28;20190;-65
2023/08/24 02:51:39;;;;;;;6.53;5.07;;;14.40;47.70;;;;;;8319199;28;20205;-64
2023/08/24 02:55:40;;;;;;;5.90;5.33;;;14.50;2.50;;;;;;8318354;28;20273;-63
2023/08/24 02:59:43;;;;;;;6.03;5.40;;;14.50;1.00;;;;;;8320414;28;20210;-67
2023/08/24 03:03:44;;;;;;;5.83;5.27;;;14.50;1.00;;;;;;8303385;28;20190;-64
2023/08/24 03:07:44;;;;;;;7.13;5.47;;;14.50;1.00;;;;;;8321564;28;20244;-65
2023/08/24 03:11:45;;;;;;;6.53;5.37;;;14.50;99.90;;;;;;8318055;28;20217;-64
2023/08/24 03:15:46;;;;;;;5.87;5.17;;;14.50;1.00;;;;;;8319471;28;20186;-64
2023/08/24 03:19:47;;;;;;;4.80;4.40;;;14.40;1.00;;;;;;8313492;28;20221;-64
2023/08/24 03:23:48;;;;;;;5.10;4.60;;;14.40;55.90;;;;;;8304045;28;20205;-65
2023/08/24 03:27:48;;;;;;;4.73;4.33;;;14.40;99.90;;;;;;8319640;28;20232;-65
2023/08/24 03:31:49;;;;;;;4.63;4.23;;;14.40;99.90;;;;;;8315539;28;20194;-63
2023/08/24 03:35:50;;;;;;;5.40;4.90;;;14.40;99.90;;;;;;8314827;28;20346;-64
2023/08/24 03:39:51;;;;;;;5.37;4.87;;;14.30;99.60;;;;;;8312855;28;20232;-64
2023/08/24 03:43:52;;;;;;;5.17;4.70;;;14.30;8.30;;;;;;8299130;28;20238;-65
2023/08/24 03:47:52;;;;;;;6.50;5.23;;;14.30;1.00;;;;;;8319192;28;20190;-64
2023/08/24 03:51:53;;;;;;;5.63;5.13;;;14.30;43.70;;;;;;8307432;28;20197;-64
2023/08/24 03:55:54;;;;;;;6.30;5.67;;;14.30;11.20;;;;;;8298478;28;20197;-64
2023/08/24 03:59:55;;;;;;;6.73;5.50;;;14.30;60.80;;;;;;8300587;28;20217;-64
2023/08/24 04:03:57;;;;;;;7.53;5.90;;;14.50;99.90;;;;;;8299474;28;20201;-63
2023/08/24 04:08:00;;;;;;;5.73;5.23;;;14.80;1.00;;;;;;8307357;28;20389;-64
2023/08/24 04:12:00;;;;;;;6.00;5.40;;;15.00;99.90;;;;;;8307864;28;20297;-65
2023/08/24 04:16:01;;;;;;;6.17;4.97;;;15.10;6.50;;;;;;8319985;28;20584;-66
2023/08/24 04:20:04;;;;;;;5.47;4.97;;;15.20;1.00;;;;;;8314386;28;20209;-65
2023/08/24 04:24:05;;;;;;;7.97;5.37;;;15.30;99.90;;;;;;8330657;28;20319;-66
2023/08/24 04:28:05;;;;;;;5.27;4.77;;;15.40;99.90;;;;;;8329441;28;20186;-66
2023/08/24 04:32:06;;;;;;;5.23;4.57;;;15.50;99.90;;;;;;8314244;28;20194;-66
2023/08/24 04:36:08;;;;;;;6.73;4.50;;;15.60;99.90;;;;;;8314345;28;20202;-66
2023/08/24 04:40:10;;;;;;;4.80;4.33;;;15.80;15.60;;;;;;8316107;28;20264;-66
2023/08/24 04:44:11;;;;;;;6.47;4.83;;;15.90;1.00;;;;;;8327017;28;20285;-66
2023/08/24 04:48:12;;;;;;;5.10;4.53;;;16.10;1.00;;;;;;8326471;28;20195;-66
2023/08/24 04:52:14;;;;;;;5.77;4.57;;;16.50;1.00;;;;;;8307904;28;20205;-67
2023/08/24 04:56:15;;;;;;;5.00;4.37;;;16.90;99.90;;;;;;8307749;28;20488;-67
2023/08/24 05:00:17;;;;;;;5.07;4.57;;;17.10;99.90;;;;;;8300495;28;20241;-66
2023/08/24 05:04:17;;;;;;;8.10;4.20;;;17.10;99.90;;;;;;8307358;28;20517;-66
2023/08/24 05:08:18;;;;;;;4.80;4.30;;;17.10;99.90;;;;;;8301500;28;20192;-66
2023/08/24 05:12:19;;;;;;;4.30;3.90;;;17.10;97.80;;;;;;8304715;28;20271;-66
2023/08/24 05:16:19;;;;;;;3.80;3.40;;;17.20;83.90;;;;;;8320774;28;20195;-66
2023/08/24 05:20:23;;;;;;;6.43;3.67;;;17.40;40.00;;;;;;8305398;28;20218;-66
2023/08/24 05:24:24;;;;;;;3.70;3.27;;;17.50;20.50;;;;;;8320671;28;20194;-66
2023/08/24 05:28:26;;;;;;;4.63;3.80;;;17.60;1.00;;;;;;8318127;28;20214;-66
2023/08/24 05:32:27;;;;;;;6.00;3.50;;;17.70;1.00;;;;;;8333884;28;20197;-66
2023/08/24 05:36:27;;;;;;;4.33;3.47;;;17.90;1.00;;;;;;8327283;28;20212;-66
2023/08/24 05:40:28;;;;;;;3.77;3.40;;;18.00;1.00;;;;;;8312550;28;21862;-66
2023/08/24 05:44:29;;;;;;;7.77;3.80;;;18.10;1.00;;;;;;8301058;28;20194;-66
2023/08/24 05:48:30;;;;;;;3.53;3.20;;;18.30;1.00;;;;;;8304628;28;20267;-66
2023/08/24 05:52:30;;;;;;;4.80;3.50;;;18.40;1.00;;;;;;8305216;28;20201;-66
2023/08/24 05:56:31;;;;;;;5.80;3.43;;;18.70;1.00;;;;;;8295102;28;20191;-65
2023/08/24 06:00:35;;;;;;;5.23;3.67;;;18.80;1.00;;;;;;8311153;28;20206;-66
2023/08/24 06:04:35;;;;;;;6.67;3.90;;;19.10;1.00;;;;;;8335388;28;20190;-66
2023/08/24 06:08:36;;;;;;;5.97;3.93;;;19.30;1.00;;;;;;8307730;28;20217;-66
2023/08/24 06:12:37;;;;;;;5.30;3.20;;;19.50;1.00;;;;;;8318359;28;20182;-66
2023/08/24 06:16:38;;;;;;;7.50;3.77;;;19.60;1.00;;;;;;8328263;28;20185;-66
2023/08/24 06:20:39;;;;;;;4.27;3.27;;;19.80;1.00;;;;;;8327664;28;20225;-65
2023/08/24 06:24:40;;;;;;;7.53;4.40;;;20.00;1.00;;;;;;8305749;28;20229;-66
2023/08/24 06:28:40;;;;;;;5.73;3.80;;;20.20;1.00;;;;;;8291788;28;20193;-65
2023/08/24 06:32:41;;;;;;;3.60;3.17;;;20.40;1.00;;;;;;8303744;28;20198;-65
2023/08/24 06:36:43;;;;;;;4.87;3.37;;;20.60;1.00;;;;;;8308876;28;20214;-63
2023/08/24 06:40:44;;;;;;;4.27;3.37;;;20.70;1.00;;;;;;8323453;28;20217;-64
2023/08/24 06:44:45;;;;;;;4.60;3.20;;;20.90;1.00;;;;;;8311500;28;20205;-63
2023/08/24 06:48:46;;;;;;;5.23;3.03;;;21.00;1.00;;;;;;8304368;28;20995;-63
2023/08/24 06:52:47;;;;;;;6.00;3.30;;;21.10;1.00;;;;;;8310257;28;20193;-64
2023/08/24 06:56:47;;;;;;;4.40;2.87;;;21.20;1.00;;;;;;8303874;28;20198;-64
2023/08/24 07:00:50;;;;;;;4.63;3.00;;;21.30;1.00;;;;;;8312832;28;20218;-64
2023/08/24 07:04:51;;;;;;;5.30;2.90;;;21.30;1.00;;;;;;8324255;28;20205;-65
2023/08/24 07:08:52;;;;;;;5.50;3.03;;;21.30;1.00;;;;;;8326697;28;20227;-66
2023/08/24 07:12:52;;;;;;;6.63;3.13;;;21.40;1.00;;;;;;8312136;28;20232;-65
2023/08/24 07:16:53;;;;;;;3.37;2.53;;;21.40;1.00;;;;;;8328331;28;20185;-64
2023/08/24 07:20:54;;;;;;;5.97;2.50;;;21.60;1.00;;;;;;8328319;28;20253;-64
2023/08/24 07:24:55;;;;;;;5.90;2.90;;;21.70;1.00;;;;;;8321367;28;20322;-65
2023/08/24 07:28:56;;;;;;;3.80;2.23;;;21.80;1.00;;;;;;8323273;28;20270;-65
2023/08/24 07:32:56;;;;;;;3.63;2.50;;;21.90;1.00;;;;;;8312395;28;20186;-63
2023/08/24 07:36:57;;;;;;;3.37;2.40;;;22.00;1.00;;;;;;8329613;28;20209;-65
2023/08/24 07:40:58;;;;;;;4.70;2.50;;;22.20;1.00;;;;;;8319692;28;20330;-64
2023/08/24 07:44:59;;;;;;;2.67;2.37;;;22.30;1.00;;;;;;8322958;28;20314;-65
2023/08/24 07:49:00;;;;;;;4.00;2.30;;;22.40;1.00;;;;;;8324681;28;20700;-64
2023/08/24 07:53:00;;;;;;;2.63;1.70;;;22.60;1.00;;;;;;8329214;28;20178;-64
2023/08/24 07:57:01;;;;;;;5.03;2.27;;;22.80;1.00;;;;;;8332823;28;20197;-65
2023/08/24 08:01:02;;;;;;;5.37;2.33;;;22.90;99.90;;;;;;8312316;28;20214;-63
2023/08/24 08:05:03;;;;;;;2.20;1.90;;;23.00;99.90;;;;;;8316437;28;20181;-62
2023/08/24 08:09:04;;;;;;;3.03;2.10;;;23.20;99.90;;;;;;8310703;28;20218;-63
2023/08/24 08:13:05;;;;;;;4.27;2.50;;;23.40;99.90;;;;;;8329598;28;20186;-66
2023/08/24 08:17:05;;;;;;;3.53;1.80;;;23.50;99.90;;;;;;8324196;28;20193;-64
2023/08/24 08:21:11;;;;;;;5.17;2.40;;;23.60;99.90;;;;;;8317143;28;20220;-67
2023/08/24 08:25:12;;;;;;;4.10;2.50;;;23.70;99.90;;;;;;8310443;28;20285;-64
2023/08/24 08:29:13;;;;;;;2.30;1.70;;;23.70;99.90;;;;;;8322140;28;20186;-64
2023/08/24 08:33:13;;;;;;;3.77;1.77;;;23.80;99.90;;;;;;8330120;28;20185;-65
2023/08/24 08:37:15;;;;;;;2.97;2.00;;;24.00;99.90;;;;;;8326268;28;20201;-65
2023/08/24 08:41:21;;;;;;;4.53;2.33;;;24.20;99.90;;;;;;8310984;28;20545;-65
2023/08/24 08:45:25;;;;;;;3.33;2.03;;;24.50;99.90;;;;;;8329139;28;20186;-65
2023/08/24 08:49:27;;;;;;;4.17;2.00;;;24.50;99.90;;;;;;8316017;28;20230;-66
2023/08/24 08:53:28;;;;;;;2.63;1.60;;;24.70;99.90;;;;;;8321207;28;20190;-64
2023/08/24 08:57:28;;;;;;;3.37;2.10;;;24.80;99.90;;;;;;8317140;28;20194;-64
2023/08/24 09:01:30;;;;;;;4.00;1.63;;;24.90;99.90;;;;;;8315617;28;20259;-65
2023/08/24 09:05:32;;;;;;;1.50;1.40;;;24.80;99.90;;;;;;8315491;28;20189;-66
2023/08/24 09:09:33;;;;;;;5.22;3.50;;;24.80;99.90;;;;;;8307557;28;20747;-65
2023/08/24 09:13:34;;;;;;;3.42;1.80;;;25.00;99.90;;;;;;8318195;28;20210;-67
2023/08/24 09:17:35;;;;;;;4.60;1.80;;;25.10;99.90;;;;;;8311649;28;20197;-65
2023/08/24 09:21:41;;;;;;;3.67;1.70;;;25.10;99.90;;;;;;8309458;28;20226;-66
2023/08/24 09:25:47;;;;;;;4.10;1.73;;;25.20;99.90;;;;;;8333131;28;20204;-65
2023/08/24 09:29:52;;;;;;;3.75;1.75;;;25.10;99.90;;;;;;8311845;28;20198;-65
2023/08/24 09:34:00;;;;;;;3.63;2.20;;;25.30;99.90;;;;;;8328985;28;20179;-68
2023/08/24 09:38:01;;;;;;;3.08;2.00;;;25.50;99.90;;;;;;8311316;28;20287;-65
2023/08/24 09:42:04;;;;;;;3.28;2.17;;;25.50;99.90;;;;;;8310042;28;20205;-65
2023/08/24 09:46:06;;;;;;;2.93;2.10;;;25.50;99.90;;;;;;8327202;28;20181;-65
2023/08/24 09:50:08;;;;;;;3.07;1.90;;;25.30;99.90;;;;;;8307371;28;20274;-64
2023/08/24 09:54:10;;;;;;;4.27;2.07;;;25.20;99.90;;;;;;8310559;28;20182;-65
2023/08/24 09:58:11;;;;;;;2.35;2.03;;;25.20;99.90;;;;;;8324442;28;20443;-65
2023/08/24 10:02:20;;;;;;;5.17;2.30;;;25.40;99.90;;;;;;8314251;28;20202;-68
2023/08/24 10:06:24;;;;;;;3.10;1.88;;;25.70;99.90;;;;;;8326725;28;20505;-65
2023/08/24 10:10:27;;;;;;;3.78;1.95;;;26.00;99.90;;;;;;8327778;28;20284;-67
2023/08/24 10:14:38;;;;;;;2.78;2.08;;;26.00;99.90;;;;;;8325297;28;20237;-65
2023/08/24 10:18:41;;;;;;;5.43;2.13;;;26.00;99.90;;;;;;8308159;28;20285;-66
2023/08/24 10:22:42;;;;;;;5.28;2.33;;;26.30;99.90;;;;;;8331757;28;20628;-66
2023/08/24 10:26:43;;;;;;;6.15;1.98;;;26.50;99.90;;;;;;8293141;28;20191;-66
2023/08/24 10:30:45;;;;;;;7.55;2.28;;;26.90;99.90;;;;;;8293723;28;20269;-66
2023/08/24 10:34:46;;;;;;;8.68;2.33;;;27.30;99.90;;;;;;8301926;28;20754;-67
2023/08/24 10:38:47;;;;;;;4.00;2.00;;;27.80;99.90;;;;;;8292315;28;21641;-66
2023/08/24 10:42:48;;;;;;;4.15;1.75;;;28.30;99.90;;;;;;8288115;28;20229;-66
2023/08/24 10:47:19;;;;;;;3.08;1.60;;;28.90;99.90;;;;;;8288961;28;20283;-68
2023/08/24 10:51:25;;;;;;;2.33;1.67;;;29.40;99.90;;;;;;8270831;28;20199;-65
2023/08/24 10:55:29;;;;;;;2.10;1.20;;;30.10;99.90;;;;;;8292128;28;20333;-67
2023/08/24 10:59:35;;;;;;;1.67;1.40;;;30.50;99.90;;;;;;8289151;28;20294;-66
2023/08/24 11:03:36;;;;;;;1.95;1.27;;;30.80;99.90;;;;;;8282743;28;20306;-66
2023/08/24 11:07:52;;;;;;;2.65;1.40;;;31.10;99.90;;;;;;8287340;28;20183;-67
2023/08/24 11:12:04;;;;;;;1.85;1.45;;;31.30;99.90;;;;;;8286306;28;20206;-68
2023/08/24 11:16:09;;;;;;;3.00;1.23;;;31.50;99.90;;;;;;8289975;28;20759;-66
2023/08/24 11:20:10;;;;;;;1.85;1.48;;;31.60;99.90;;;;;;8285578;28;20218;-67
2023/08/24 11:24:19;;;;;;;3.47;1.67;;;31.60;99.90;;;;;;8285325;28;20195;-67
2023/08/24 11:28:21;;;;;;;6.32;1.83;;;31.70;99.90;;;;;;8293803;28;20225;-68
2023/08/24 11:32:24;;;;;;;1.83;1.33;;;31.50;99.90;;;;;;8279422;28;20214;-66
2023/08/24 11:36:25;;;;;;;2.35;1.30;;;31.60;99.90;;;;;;8285533;28;20189;-66
2023/08/24 11:40:28;;;;;;;2.53;1.33;;;31.70;99.90;;;;;;8294183;28;20273;-66
2023/08/24 11:44:30;;;;;;;2.72;1.40;;;31.80;99.90;;;;;;8272049;28;20297;-66
2023/08/24 11:48:33;;;;;;;2.80;1.30;;;31.90;99.90;;;;;;8282966;28;20382;-69
2023/08/24 11:52:40;;;;;;;3.45;1.55;;;31.80;99.90;;;;;;8284018;28;20182;-68
2023/08/24 11:56:46;;;;;;;3.33;1.77;;;31.80;99.90;;;;;;8275419;28;20315;-68
2023/08/24 12:00:50;;;;;;;1.90;1.38;;;31.30;99.90;;;;;;8281370;28;20219;-66
2023/08/24 12:04:51;;;;;;;2.70;1.50;;;30.40;99.90;;;;;;8273970;28;20227;-67
2023/08/24 12:08:53;;;;;;;1.50;1.38;;;30.30;99.90;;;;;;8276956;28;20203;-66
2023/08/24 12:13:06;;;;;;;3.17;1.90;;;30.00;99.90;;;;;;8279836;28;20268;-68
2023/08/24 12:17:08;;;;;;;3.53;1.98;;;29.90;99.90;;;;;;8280096;28;20195;-63
2023/08/24 12:21:09;;;;;;;4.22;1.83;;;29.70;99.90;;;;;;8278465;28;20264;-67
2023/08/24 12:25:10;;;;;;;3.13;1.50;;;29.60;99.90;;;;;;8277718;28;20223;-65
2023/08/24 12:29:11;;;;;;;1.83;1.48;;;29.30;99.90;;;;;;8282719;28;20535;-65
2023/08/24 12:33:25;;;;;;;1.92;1.45;;;29.10;99.90;;;;;;8273074;28;20477;-68
2023/08/24 12:37:26;;;;;;;2.53;1.70;;;29.20;99.90;;;;;;8290903;28;20187;-67
2023/08/24 12:41:27;;;;;;;3.17;1.90;;;29.10;99.90;;;;;;8285171;28;20211;-64
2023/08/24 12:45:28;;;;;;;2.97;1.67;;;29.00;99.90;;;;;;8282831;28;20190;-65
2023/08/24 12:49:29;;;;;;;3.20;1.92;;;29.00;99.90;;;;;;8276572;28;20190;-69
2023/08/24 12:53:30;;;;;;;2.03;1.35;;;29.10;99.90;;;;;;8280878;28;20195;-66
2023/08/24 12:57:30;;;;;;;4.47;1.80;;;29.10;99.90;;;;;;8304073;28;20198;-70
2023/08/24 13:01:31;;;;;;;3.92;1.50;;;29.20;99.90;;;;;;8278222;28;20219;-68
2023/08/24 13:05:32;;;;;;;5.15;1.90;;;29.20;99.90;;;;;;8279182;28;20206;-67
2023/08/24 13:09:33;;;;;;;2.08;1.60;;;29.20;99.90;;;;;;8278620;28;20293;-68
2023/08/24 13:13:33;;;;;;;6.07;1.95;;;29.20;99.90;;;;;;8285962;28;20275;-66
2023/08/24 13:17:34;;;;;;;4.18;2.22;;;29.40;99.90;;;;;;8281611;28;20202;-67
2023/08/24 13:21:35;;;;;;;1.85;1.60;;;29.40;99.90;;;;;;8282621;28;20325;-70
2023/08/24 13:25:35;;;;;;;2.65;1.60;;;29.40;99.90;;;;;;8286180;28;20201;-66
2023/08/24 13:29:37;;;;;;;4.75;1.67;;;29.50;99.90;;;;;;8290512;28;20210;-67
2023/08/24 13:33:37;;;;;;;3.78;1.58;;;29.50;99.90;;;;;;8289421;28;20186;-67
2023/08/24 13:37:39;;;;;;;2.33;1.35;;;29.70;99.90;;;;;;8275625;28;20297;-68
2023/08/24 13:41:39;;;;;;;4.05;1.70;;;29.70;99.90;;;;;;8280909;28;21603;-64
2023/08/24 13:45:40;;;;;;;3.63;1.70;;;29.80;99.90;;;;;;8282102;28;20183;-63
2023/08/24 13:49:42;;;;;;;4.22;1.80;;;30.10;99.90;;;;;;8282845;28;20183;-69
2023/08/24 13:53:42;;;;;;;5.20;1.50;;;30.40;99.90;;;;;;8282745;28;20211;-66
2023/08/24 13:57:43;;;;;;;1.90;1.40;;;30.80;99.90;;;;;;8268393;28;20198;-66
2023/08/24 14:01:44;;;;;;;3.85;1.95;;;31.20;99.90;;;;;;8280594;28;20293;-69
2023/08/24 14:05:47;;;;;;;1.98;1.50;;;31.00;99.90;;;;;;8286805;28;20190;-66
2023/08/24 14:09:47;;;;;;;2.72;1.73;;;30.80;99.90;;;;;;8282919;28;20225;-70
2023/08/24 14:13:48;;;;;;;3.00;1.50;;;30.50;99.90;;;;;;8287886;28;20217;-69
2023/08/24 14:17:49;;;;;;;3.88;2.10;;;30.10;99.90;;;;;;8280251;28;20194;-69
2023/08/24 14:21:50;;;;;;;4.05;1.70;;;29.90;99.90;;;;;;8287446;28;20210;-66
2023/08/24 14:25:51;;;;;;;4.07;1.50;;;29.80;99.90;;;;;;8309465;28;20244;-67
2023/08/24 14:29:52;;;;;;;2.60;1.58;;;29.70;99.90;;;;;;8297620;28;20213;-67
2023/08/24 14:33:53;;;;;;;2.33;1.42;;;29.50;99.90;;;;;;8300168;28;20197;-68
2023/08/24 14:37:54;;;;;;;3.92;1.95;;;29.30;99.90;;;;;;8302334;28;20200;-69
2023/08/24 14:41:54;;;;;;;2.85;1.70;;;29.20;99.90;;;;;;8315132;28;20532;-68
2023/08/24 14:45:55;;;;;;;4.47;1.75;;;29.10;99.90;;;;;;8283707;28;20224;-67
2023/08/24 14:49:56;;;;;;;2.05;1.35;;;29.00;99.90;;;;;;8316572;28;20553;-67
2023/08/24 14:53:57;;;;;;;2.83;1.55;;;29.00;99.90;;;;;;8292986;28;20196;-68
2023/08/24 14:57:59;;;;;;;3.67;2.10;;;29.00;99.90;;;;;;8291745;28;20245;-68
2023/08/24 15:02:00;;;;;;;2.80;1.80;;;29.10;99.90;;;;;;8302925;28;20690;-66
2023/08/24 15:06:06;;;;;;;2.17;1.63;;;29.10;99.90;;;;;;8313690;28;20293;-69
2023/08/24 15:10:07;;;;;;;4.95;1.80;;;29.20;99.90;;;;;;8298724;28;20878;-67
2023/08/24 15:14:08;;;;;;;4.47;1.70;;;29.20;99.90;;;;;;8305698;28;20194;-68
2023/08/24 15:18:10;;;;;;;2.45;1.88;;;29.10;99.90;;;;;;8320890;28;20194;-68
2023/08/24 15:22:11;;;;;;;2.10;1.73;;;29.10;99.90;;;;;;8299208;28;20210;-69
2023/08/24 15:26:12;;;;;;;1.77;1.35;;;29.20;99.90;;;;;;8292747;28;20186;-69
2023/08/24 15:30:13;;;;;;;2.83;1.63;;;29.20;99.90;;;;;;8312870;28;20183;-69
2023/08/24 15:34:14;;;;;;;2.05;1.52;;;29.20;99.90;;;;;;8299832;28;20533;-69
2023/08/24 15:38:15;;;;;;;6.10;1.80;;;29.20;99.90;;;;;;8291181;28;20707;-68
2023/08/24 15:42:18;;;;;;;3.75;1.88;;;29.10;99.90;;;;;;8295160;28;20348;-71
2023/08/24 15:46:19;;;;;;;4.15;1.80;;;29.20;99.90;;;;;;8306564;28;20200;-69
2023/08/24 15:50:20;;;;;;;2.30;1.70;;;29.30;99.90;;;;;;8315723;28;20189;-68
2023/08/24 15:54:22;;;;;;;5.35;2.17;;;29.30;99.90;;;;;;8305668;28;20221;-69
2023/08/24 15:58:24;;;;;;;3.97;2.25;;;29.20;99.90;;;;;;8325183;28;20822;-68
2023/08/24 16:02:24;;;;;;;3.30;2.10;;;29.00;99.90;;;;;;8319171;28;20213;-68
2023/08/24 16:06:25;;;;;;;6.07;2.10;;;28.80;99.90;;;;;;8315772;28;20183;-69
2023/08/24 16:10:26;;;;;;;2.80;1.92;;;28.70;99.90;;;;;;8293482;28;20205;-67
2023/08/24 16:14:27;;;;;;;1.98;1.48;;;28.60;99.90;;;;;;8309823;28;20242;-70
2023/08/24 16:18:27;;;;;;;3.33;1.45;;;28.60;99.90;;;;;;8304145;28;20272;-71
2023/08/24 16:22:28;;;;;;;1.80;1.50;;;28.80;99.90;;;;;;8300391;28;20218;-68
2023/08/24 16:26:29;;;;;;;4.60;1.77;;;28.90;99.90;;;;;;8297031;28;20186;-68
2023/08/24 16:30:29;;;;;;;3.45;1.73;;;28.80;99.90;;;;;;8313734;28;20182;-66
2023/08/24 16:34:30;;;;;;;4.82;1.88;;;28.70;99.90;;;;;;8300288;28;20193;-67
2023/08/24 16:38:31;;;;;;;6.13;2.60;;;28.60;99.90;;;;;;8305562;28;20187;-68
2023/08/24 16:42:32;;;;;;;3.15;2.38;;;28.60;99.90;;;;;;8325621;28;20305;-68
2023/08/24 16:46:32;;;;;;;3.60;1.80;;;28.60;99.90;;;;;;8327693;28;20190;-68
2023/08/24 16:50:34;;;;;;;3.40;2.10;;;28.40;99.90;;;;;;8308997;28;20219;-68
2023/08/24 16:54:35;;;;;;;5.95;2.25;;;28.10;99.90;;;;;;8305472;28;20195;-69
2023/08/24 16:58:36;;;;;;;4.18;2.20;;;27.80;99.90;;;;;;8316641;28;20185;-70
2023/08/24 17:02:36;;;;;;;4.60;2.33;;;27.50;99.90;;;;;;8316391;28;20614;-68
2023/08/24 17:06:37;;;;;;;4.45;2.53;;;27.20;99.90;;;;;;8314089;28;20190;-68
2023/08/24 17:10:39;;;;;;;5.65;2.45;;;26.90;99.90;;;;;;8294439;28;20283;-69
2023/08/24 17:14:39;;;;;;;2.85;2.25;;;26.60;99.90;;;;;;8319617;28;20212;-66
2023/08/24 17:18:40;;;;;;;3.58;2.45;;;26.30;99.90;;;;;;8305630;28;20205;-65
2023/08/24 17:22:42;;;;;;;3.22;1.95;;;26.00;99.90;;;;;;8315437;28;20213;-64
2023/08/24 17:26:43;;;;;;;4.32;2.30;;;25.80;99.90;;;;;;8300396;28;20191;-65
2023/08/24 17:30:47;;;;;;;4.67;2.30;;;25.60;99.90;;;;;;8295122;28;20198;-66
2023/08/24 17:34:49;;;;;;;4.53;2.37;;;25.40;99.90;;;;;;8304596;28;20186;-65
2023/08/24 17:38:50;;;;;;;5.23;2.93;;;25.20;99.90;;;;;;8297227;28;20228;-64
2023/08/24 17:42:50;;;;;;;4.23;2.53;;;25.00;99.90;;;;;;8314183;28;20918;-65
2023/08/24 17:46:51;;;;;;;3.93;2.57;;;24.70;99.90;;;;;;8316186;28;20938;-67
2023/08/24 17:50:58;;;;;;;3.10;2.47;;;24.40;99.90;;;;;;8305653;28;20197;-63
2023/08/24 17:55:03;;;;;;;2.83;2.53;;;24.10;99.90;;;;;;8317775;28;20186;-66
2023/08/24 17:59:04;;;;;;;2.80;2.60;;;23.70;99.90;;;;;;8316830;28;20193;-65
2023/08/24 18:03:05;;;;;;;3.10;2.80;;;23.40;99.90;;;;;;8302182;28;20207;-66
2023/08/24 18:07:06;;;;;;;3.80;2.70;;;23.20;99.90;;;;;;8319591;28;20190;-67
2023/08/24 18:11:07;;;;;;;3.03;2.50;;;23.10;99.90;;;;;;8308901;28;20206;-67
2023/08/24 18:15:08;;;;;;;3.97;2.47;;;22.90;1.00;;;;;;8303990;28;20252;-66
2023/08/24 18:19:10;;;;;;;3.43;2.77;;;22.60;1.00;;;;;;8309205;28;20236;-66
2023/08/24 18:23:11;;;;;;;5.87;3.30;;;22.40;1.00;;;;;;8304647;28;20211;-65
2023/08/24 18:27:11;;;;;;;4.27;3.30;;;22.20;1.00;;;;;;8304862;28;20192;-63
2023/08/24 18:31:12;;;;;;;5.03;3.27;;;22.00;1.00;;;;;;8305051;28;20276;-64
2023/08/24 18:35:13;;;;;;;6.03;3.53;;;21.90;1.00;;;;;;8299735;28;20190;-64
2023/08/24 18:39:14;;;;;;;5.77;3.30;;;21.80;1.00;;;;;;8308857;28;20178;-64
2023/08/24 18:43:15;;;;;;;3.20;2.93;;;21.80;1.00;;;;;;8295853;28;20214;-63
2023/08/24 18:47:16;;;;;;;7.43;3.70;;;21.70;1.00;;;;;;8299877;28;20186;-64
2023/08/24 18:51:18;;;;;;;3.17;2.87;;;21.60;1.00;;;;;;8308026;28;20190;-65
2023/08/24 18:55:20;;;;;;;3.83;3.43;;;21.50;1.00;;;;;;8303519;28;20530;-63
2023/08/24 18:59:22;;;;;;;6.30;3.30;;;21.40;1.00;;;;;;8302121;28;20236;-65
2023/08/24 19:03:22;;;;;;;5.03;3.40;;;21.40;1.00;;;;;;8308369;28;20191;-65
2023/08/24 19:07:23;;;;;;;5.73;3.57;;;21.30;1.00;;;;;;8322252;28;20274;-64
2023/08/24 19:11:24;;;;;;;4.83;4.07;;;21.30;1.00;;;;;;8312671;28;20202;-65
2023/08/24 19:15:25;;;;;;;5.63;3.60;;;21.30;1.00;;;;;;8313889;28;20193;-65
2023/08/24 19:19:26;;;;;;;4.30;3.60;;;21.20;1.00;;;;;;8313008;28;20189;-65
2023/08/24 19:23:27;;;;;;;4.10;3.27;;;21.20;1.00;;;;;;8324742;28;20190;-67
2023/08/24 19:27:27;;;;;;;4.97;3.73;;;21.10;1.00;;;;;;8322808;28;20178;-61
2023/08/24 19:31:28;;;;;;;5.50;4.50;;;20.90;1.00;;;;;;8323325;28;20197;-61
2023/08/24 19:35:30;;;;;;;6.30;3.53;;;20.90;1.00;;;;;;8294769;28;20206;-61
2023/08/24 19:39:30;;;;;;;6.77;4.07;;;20.80;1.00;;;;;;8298985;28;20312;-64
2023/08/24 19:43:31;;;;;;;5.23;3.77;;;20.80;1.00;;;;;;8316785;28;20174;-64
2023/08/24 19:47:32;;;;;;;5.40;4.30;;;20.80;1.00;;;;;;8308972;28;20228;-61
2023/08/24 19:51:33;;;;;;;5.13;3.73;;;20.80;1.00;;;;;;8298640;28;20186;-63
2023/08/24 19:55:34;;;;;;;4.67;3.83;;;20.70;1.00;;;;;;8293148;28;20207;-63
2023/08/24 19:59:34;;;;;;;6.27;3.90;;;20.60;1.00;;;;;;8305737;28;20227;-64
2023/08/24 20:03:35;;;;;;;6.27;4.17;;;20.50;1.00;;;;;;8313564;28;20182;-65
2023/08/24 20:07:37;;;;;;;7.07;3.90;;;20.50;1.00;;;;;;8305348;28;20190;-65
2023/08/24 20:11:38;;;;;;;5.47;3.93;;;20.40;1.00;;;;;;8324051;28;20289;-65
2023/08/24 20:15:39;;;;;;;4.93;3.87;;;20.40;1.00;;;;;;8309436;28;20196;-64
2023/08/24 20:19:40;;;;;;;6.07;4.40;;;20.30;1.00;;;;;;8317759;28;20190;-65
2023/08/24 20:23:41;;;;;;;6.10;4.13;;;20.20;1.00;;;;;;8326802;28;20206;-63
2023/08/24 20:27:41;;;;;;;6.57;4.17;;;20.20;1.00;;;;;;8303431;28;20240;-63
2023/08/24 20:31:42;;;;;;;5.17;4.67;;;20.10;1.00;;;;;;8312306;28;20209;-62
2023/08/24 20:35:43;;;;;;;8.37;4.30;;;20.00;1.00;;;;;;8303184;28;20281;-65
2023/08/24 20:39:44;;;;;;;4.63;4.23;;;19.90;1.00;;;;;;8309235;28;20296;-65
2023/08/24 20:43:45;;;;;;;4.70;4.30;;;19.70;1.00;;;;;;8323547;28;20239;-65
2023/08/24 20:47:46;;;;;;;7.77;4.40;;;19.70;1.00;;;;;;8303965;28;20191;-63
2023/08/24 20:51:48;;;;;;;4.63;4.23;;;19.50;1.00;;;;;;8318515;28;20194;-62
2023/08/24 20:55:48;;;;;;;6.87;4.50;;;19.40;1.00;;;;;;8308290;28;20285;-65
2023/08/24 20:59:49;;;;;;;4.90;4.07;;;19.40;1.00;;;;;;8314646;28;20537;-63
2023/08/24 21:03:50;;;;;;;6.50;4.10;;;19.40;1.00;;;;;;8314905;28;20240;-63